createdAt,value
2023-01-22T00:01:25.410Z,2.43
2023-01-22T00:04:33.997Z,2.70
2023-01-22T00:07:43.705Z,2.60
2023-01-22T00:10:52.652Z,2.60
2023-01-22T00:14:01.076Z,2.70
2023-01-22T00:17:09.721Z,2.80
2023-01-22T00:20:19.169Z,2.97
2023-01-22T00:23:29.313Z,3.03
2023-01-22T00:26:38.158Z,2.30
2023-01-22T00:29:46.498Z,2.43
2023-01-22T00:32:54.893Z,2.90
2023-01-22T00:36:06.069Z,2.67
2023-01-22T00:39:15.827Z,2.40
2023-01-22T00:42:24.397Z,2.33
2023-01-22T00:45:34.154Z,2.50
2023-01-22T00:48:42.738Z,2.50
2023-01-22T00:51:51.207Z,2.67
2023-01-22T00:55:01.006Z,2.13
2023-01-22T00:58:09.443Z,2.20
2023-01-22T01:01:17.911Z,1.80
2023-01-22T01:04:26.319Z,2.40
2023-01-22T01:07:34.707Z,2.37
2023-01-22T01:10:44.461Z,2.40
2023-01-22T01:13:54.420Z,2.20
2023-01-22T01:17:02.736Z,2.20
2023-01-22T01:20:12.419Z,2.37
2023-01-22T01:23:21.385Z,2.00
2023-01-22T01:26:31.406Z,2.30
2023-01-22T01:29:40.166Z,2.33
2023-01-22T01:32:49.422Z,2.00
2023-01-22T01:36:01.816Z,2.10
2023-01-22T01:39:11.318Z,1.80
2023-01-22T01:42:26.962Z,1.97
2023-01-22T01:45:36.235Z,2.00
2023-01-22T01:48:47.294Z,2.17
2023-01-22T01:51:59.357Z,1.90
2023-01-22T01:55:09.362Z,2.00
2023-01-22T01:58:22.431Z,1.87
2023-01-22T02:01:32.253Z,2.10
2023-01-22T02:04:40.666Z,2.10
2023-01-22T02:07:49.367Z,1.80
2023-01-22T02:10:58.047Z,1.80
2023-01-22T02:14:11.640Z,1.90
2023-01-22T02:17:23.117Z,2.07
2023-01-22T02:20:36.576Z,1.77
2023-01-22T02:23:44.948Z,1.80
2023-01-22T02:26:53.380Z,2.00
2023-01-22T02:30:01.737Z,1.87
2023-01-22T02:33:11.065Z,1.83
2023-01-22T02:36:23.842Z,1.83
2023-01-22T02:39:32.894Z,2.23
2023-01-22T02:42:43.924Z,1.70
2023-01-22T02:45:54.524Z,1.80
2023-01-22T02:49:03.275Z,1.93
2023-01-22T02:52:15.206Z,1.90
2023-01-22T02:55:23.587Z,1.90
2023-01-22T02:58:32.052Z,1.77
2023-01-22T03:01:40.599Z,1.80
2023-01-22T03:04:50.202Z,1.80
2023-01-22T03:08:00.157Z,1.83
2023-01-22T03:11:08.548Z,1.87
2023-01-22T03:14:34.793Z,1.80
2023-01-22T03:18:01.438Z,1.93
2023-01-22T03:21:16.646Z,1.90
2023-01-22T03:24:26.783Z,1.80
2023-01-22T03:27:35.384Z,1.70
2023-01-22T03:30:43.783Z,1.83
2023-01-22T03:33:52.367Z,2.13
2023-01-22T03:37:00.979Z,1.80
2023-01-22T03:40:12.687Z,1.83
2023-01-22T03:43:23.935Z,1.87
2023-01-22T03:46:34.759Z,1.70
2023-01-22T03:49:43.844Z,2.10
2023-01-22T03:52:52.256Z,1.67
2023-01-22T03:56:03.287Z,1.70
2023-01-22T03:59:13.261Z,1.83
2023-01-22T04:02:22.148Z,1.70
2023-01-22T04:05:45.919Z,1.23
2023-01-22T04:08:55.654Z,1.20
2023-01-22T04:12:11.247Z,1.43
2023-01-22T04:15:19.687Z,1.47
2023-01-22T04:18:29.934Z,1.50
2023-01-22T04:21:49.093Z,1.60
2023-01-22T04:24:57.896Z,1.50
2023-01-22T04:28:08.664Z,1.53
2023-01-22T04:31:17.666Z,1.47
2023-01-22T04:34:41.626Z,1.60
2023-01-22T04:38:14.511Z,1.27
2023-01-22T04:41:23.422Z,1.30
2023-01-22T04:44:33.238Z,1.20
2023-01-22T04:47:42.513Z,1.30
2023-01-22T04:50:51.062Z,1.30
2023-01-22T04:54:00.408Z,1.20
2023-01-22T04:57:08.887Z,1.20
2023-01-22T05:00:20.483Z,1.00
2023-01-22T05:03:29.170Z,1.30
2023-01-22T05:06:38.474Z,1.33
2023-01-22T05:09:46.816Z,1.60
2023-01-22T05:12:55.430Z,1.60
2023-01-22T05:16:07.752Z,1.30
2023-01-22T05:19:17.247Z,1.27
2023-01-22T05:22:26.195Z,1.47
2023-01-22T05:25:34.624Z,1.30
2023-01-22T05:28:44.139Z,1.20
2023-01-22T05:32:15.804Z,1.40
2023-01-22T05:35:29.637Z,1.30
2023-01-22T05:38:38.651Z,1.40
2023-01-22T05:41:47.172Z,1.30
2023-01-22T05:44:56.306Z,1.10
2023-01-22T05:48:08.037Z,1.20
2023-01-22T05:51:32.592Z,1.33
2023-01-22T05:54:41.248Z,1.07
2023-01-22T05:57:49.943Z,1.63
2023-01-22T06:01:00.526Z,1.50
2023-01-22T06:04:14.959Z,1.40
2023-01-22T06:07:23.419Z,1.40
2023-01-22T06:10:31.773Z,1.40
2023-01-22T06:13:40.908Z,1.30
2023-01-22T06:16:56.542Z,1.40
2023-01-22T06:20:21.474Z,1.40
2023-01-22T06:23:30.277Z,1.33
2023-01-22T06:26:39.360Z,1.27
2023-01-22T06:29:50.277Z,1.10
2023-01-22T06:32:58.967Z,1.30
2023-01-22T06:36:10.034Z,1.40
2023-01-22T06:39:19.066Z,1.17
2023-01-22T06:42:39.630Z,1.27
2023-01-22T06:45:48.575Z,1.33
2023-01-22T06:48:58.983Z,1.00
2023-01-22T06:52:08.929Z,1.10
2023-01-22T06:55:17.552Z,1.30
2023-01-22T06:58:26.164Z,1.50
2023-01-22T07:01:34.622Z,1.20
2023-01-22T07:04:43.041Z,1.50
2023-01-22T07:07:54.483Z,1.40
2023-01-22T07:11:03.250Z,1.23
2023-01-22T07:14:11.712Z,1.40
2023-01-22T07:17:20.173Z,1.23
2023-01-22T07:20:28.646Z,1.30
2023-01-22T07:23:38.484Z,1.20
2023-01-22T07:26:48.606Z,1.07
2023-01-22T07:29:56.993Z,0.90
2023-01-22T07:33:05.824Z,1.13
2023-01-22T07:36:14.222Z,1.30
2023-01-22T07:39:23.955Z,1.20
2023-01-22T07:42:32.343Z,1.17
2023-01-22T07:45:40.709Z,1.30
2023-01-22T07:48:49.079Z,1.53
2023-01-22T07:51:59.813Z,1.20
2023-01-22T07:55:10.785Z,1.00
2023-01-22T07:58:19.208Z,1.20
2023-01-22T08:01:27.751Z,1.20
2023-01-22T08:04:36.174Z,1.10
2023-01-22T08:07:44.572Z,1.20
2023-01-22T08:10:54.404Z,1.03
2023-01-22T08:14:02.803Z,1.47
2023-01-22T08:17:11.199Z,1.10
2023-01-22T08:20:21.275Z,1.10
2023-01-22T08:23:29.845Z,1.17
2023-01-22T08:26:39.904Z,1.30
2023-01-22T08:29:49.847Z,1.10
2023-01-22T08:32:58.293Z,1.40
2023-01-22T08:36:08.064Z,1.10
2023-01-22T08:39:16.437Z,1.00
2023-01-22T08:42:26.325Z,1.40
2023-01-22T08:45:35.164Z,1.17
2023-01-22T08:48:44.544Z,1.00
2023-01-22T08:51:53.027Z,0.80
2023-01-22T08:55:01.387Z,1.03
2023-01-22T08:58:11.356Z,1.03
2023-01-22T09:01:21.253Z,1.10
2023-01-22T09:04:30.056Z,1.10
2023-01-22T09:07:38.513Z,1.10
2023-01-22T09:10:46.866Z,1.00
2023-01-22T09:13:57.154Z,1.03
2023-01-22T09:17:05.570Z,1.10
2023-01-22T09:20:14.081Z,0.93
2023-01-22T09:23:22.656Z,1.23
2023-01-22T09:26:32.280Z,1.40
2023-01-22T09:29:43.061Z,1.10
2023-01-22T09:32:51.910Z,1.20
2023-01-22T09:36:09.413Z,1.03
2023-01-22T09:39:17.771Z,1.13
2023-01-22T09:42:31.297Z,1.40
2023-01-22T09:45:42.086Z,1.20
2023-01-22T09:48:54.742Z,1.20
2023-01-22T09:52:05.313Z,1.17
2023-01-22T09:55:15.601Z,1.20
2023-01-22T09:58:26.475Z,1.30
2023-01-22T10:01:36.999Z,1.00
2023-01-22T10:04:47.709Z,1.43
2023-01-22T10:08:01.904Z,1.37
2023-01-22T10:11:11.240Z,1.23
2023-01-22T10:14:22.472Z,1.10
2023-01-22T10:17:35.789Z,1.23
2023-01-22T10:20:44.960Z,1.40
2023-01-22T10:23:56.179Z,1.40
2023-01-22T10:27:12.827Z,1.20
2023-01-22T10:30:25.221Z,1.17
2023-01-22T10:33:44.429Z,1.40
2023-01-22T10:36:54.601Z,1.53
2023-01-22T10:40:03.094Z,1.33
2023-01-22T10:43:13.785Z,1.50
2023-01-22T10:46:26.312Z,1.17
2023-01-22T10:49:36.325Z,1.40
2023-01-22T10:52:49.480Z,1.30
2023-01-22T10:56:00.994Z,1.30
2023-01-22T10:59:23.460Z,1.53
2023-01-22T11:02:32.036Z,1.50
2023-01-22T11:05:47.240Z,1.30
2023-01-22T11:09:01.936Z,1.20
2023-01-22T11:12:17.080Z,1.60
2023-01-22T11:15:31.864Z,1.77
2023-01-22T11:18:42.610Z,1.60
2023-01-22T11:21:56.245Z,1.57
2023-01-22T11:25:08.158Z,1.60
2023-01-22T11:28:29.526Z,1.40
2023-01-22T11:31:49.308Z,1.50
2023-01-22T11:35:07.776Z,1.80
2023-01-22T11:38:25.803Z,1.43
2023-01-22T11:41:55.470Z,1.60
2023-01-22T11:45:22.166Z,1.57
2023-01-22T11:48:51.078Z,1.40
2023-01-22T11:52:11.034Z,1.50
2023-01-22T11:55:30.613Z,1.50
2023-01-22T11:58:45.530Z,1.50
2023-01-22T12:02:12.667Z,1.53
2023-01-22T12:05:33.498Z,1.60
2023-01-22T12:08:55.194Z,1.67
2023-01-22T12:12:15.948Z,1.50
2023-01-22T12:15:38.286Z,1.70
2023-01-22T12:19:25.444Z,1.80
2023-01-22T12:22:40.897Z,1.80
2023-01-22T12:25:55.262Z,1.63
2023-01-22T12:29:13.133Z,1.70
2023-01-22T12:32:24.190Z,1.77
2023-01-22T12:35:33.457Z,1.70
2023-01-22T12:38:45.960Z,1.73
2023-01-22T12:42:07.165Z,2.07
2023-01-22T12:45:23.770Z,1.57
2023-01-22T12:48:42.381Z,1.70
2023-01-22T12:51:52.765Z,1.47
2023-01-22T12:55:02.651Z,1.60
2023-01-22T12:58:23.718Z,1.63
2023-01-22T13:01:37.526Z,1.70
2023-01-22T13:04:45.986Z,1.73
2023-01-22T13:08:04.613Z,1.37
2023-01-22T13:11:14.795Z,1.77
2023-01-22T13:14:26.724Z,1.63
2023-01-22T13:17:37.746Z,1.27
2023-01-22T13:20:51.434Z,1.50
2023-01-22T13:24:01.861Z,1.60
2023-01-22T13:27:23.907Z,1.50
2023-01-22T13:30:33.168Z,1.40
2023-01-22T13:33:54.530Z,1.50
2023-01-22T13:37:02.972Z,1.50
2023-01-22T13:40:22.873Z,1.70
2023-01-22T13:43:33.237Z,1.50
2023-01-22T13:46:41.667Z,1.50
2023-01-22T13:49:51.559Z,1.40
2023-01-22T13:53:00.745Z,1.40
2023-01-22T13:56:16.372Z,1.27
2023-01-22T13:59:27.472Z,1.50
2023-01-22T14:02:36.589Z,1.63
2023-01-22T14:05:46.946Z,1.60
2023-01-22T14:08:58.161Z,1.37
2023-01-22T14:12:15.851Z,1.60
2023-01-22T14:15:24.277Z,1.80
2023-01-22T14:18:32.743Z,1.40
2023-01-22T14:21:42.921Z,1.30
2023-01-22T14:24:52.616Z,1.50
2023-01-22T14:28:01.192Z,1.30
2023-01-22T14:31:09.639Z,1.17
2023-01-22T14:34:18.052Z,1.40
2023-01-22T14:37:27.945Z,1.67
2023-01-22T14:40:36.423Z,1.50
2023-01-22T14:43:44.795Z,1.43
2023-01-22T14:46:53.480Z,1.70
2023-01-22T14:50:01.942Z,1.30
2023-01-22T14:53:12.597Z,1.50
2023-01-22T14:56:21.147Z,1.50
2023-01-22T14:59:29.495Z,1.30
2023-01-22T15:02:39.934Z,1.37
2023-01-22T15:05:52.336Z,1.53
2023-01-22T15:09:02.330Z,1.80
2023-01-22T15:12:10.831Z,1.50
2023-01-22T15:15:25.261Z,1.40
2023-01-22T15:18:35.289Z,1.70
2023-01-22T15:21:43.652Z,2.10
2023-01-22T15:24:53.436Z,1.83
2023-01-22T15:28:02.958Z,1.70
2023-01-22T15:31:11.391Z,1.77
2023-01-22T15:34:19.782Z,1.80
2023-01-22T15:37:28.189Z,1.77
2023-01-22T15:40:38.082Z,1.50
2023-01-22T15:43:50.757Z,1.60
2023-01-22T15:47:01.185Z,1.80
2023-01-22T15:50:11.101Z,1.60
2023-01-22T15:53:19.578Z,1.70
2023-01-22T15:56:31.890Z,1.60
2023-01-22T15:59:41.504Z,1.70
2023-01-22T16:02:49.928Z,1.80
2023-01-22T16:06:09.862Z,1.87
2023-01-22T16:09:18.222Z,1.87
2023-01-22T16:12:27.952Z,1.67
2023-01-22T16:15:36.333Z,1.93
2023-01-22T16:18:46.052Z,2.20
2023-01-22T16:21:54.761Z,1.77
2023-01-22T16:25:03.141Z,2.10
2023-01-22T16:28:12.888Z,2.00
2023-01-22T16:31:27.186Z,1.93
2023-01-22T16:34:35.693Z,1.80
2023-01-22T16:37:45.674Z,1.70
2023-01-22T16:40:54.209Z,1.97
2023-01-22T16:44:08.790Z,2.30
2023-01-22T16:47:17.180Z,1.90
2023-01-22T16:50:25.738Z,1.73
2023-01-22T16:53:35.642Z,2.17
2023-01-22T16:56:44.007Z,2.03
2023-01-22T16:59:53.960Z,2.00
2023-01-22T17:03:02.421Z,1.90
2023-01-22T17:06:24.371Z,1.80
2023-01-22T17:09:36.864Z,1.97
2023-01-22T17:12:45.188Z,2.00
2023-01-22T17:15:55.012Z,2.00
2023-01-22T17:19:04.190Z,2.10
2023-01-22T17:22:13.461Z,2.13
2023-01-22T17:25:21.878Z,2.13
2023-01-22T17:28:30.380Z,2.40
2023-01-22T17:31:40.309Z,2.20
2023-01-22T17:34:49.083Z,2.23
2023-01-22T17:37:57.492Z,2.00
2023-01-22T17:41:08.370Z,2.17
2023-01-22T17:44:17.221Z,2.30
2023-01-22T17:47:27.227Z,2.03
2023-01-22T17:50:35.568Z,2.10
2023-01-22T17:53:46.071Z,2.43
2023-01-22T17:56:54.662Z,2.07
2023-01-22T18:00:03.090Z,2.23
2023-01-22T18:03:17.619Z,2.20
2023-01-22T18:06:26.521Z,2.17
2023-01-22T18:09:35.038Z,2.13
2023-01-22T18:12:44.480Z,2.13
2023-01-22T18:15:53.673Z,2.20
2023-01-22T18:19:07.157Z,2.40
2023-01-22T18:22:15.634Z,2.13
2023-01-22T18:25:24.026Z,2.40
2023-01-22T18:28:32.630Z,2.03
2023-01-22T18:31:41.874Z,2.50
2023-01-22T18:34:51.861Z,2.13
2023-01-22T18:38:00.307Z,2.00
2023-01-22T18:41:10.591Z,2.20
2023-01-22T18:44:19.915Z,2.20
2023-01-22T18:47:28.481Z,2.20
2023-01-22T18:50:38.691Z,1.83
2023-01-22T18:53:47.276Z,1.70
2023-01-22T18:56:56.005Z,2.07
2023-01-22T19:00:04.838Z,1.90
2023-01-22T19:03:13.596Z,1.80
2023-01-22T19:06:26.034Z,1.87
2023-01-22T19:09:34.457Z,1.70
2023-01-22T19:12:43.450Z,1.70
2023-01-22T19:15:51.902Z,2.03
2023-01-22T19:19:03.271Z,1.90
2023-01-22T19:22:13.139Z,2.20
2023-01-22T19:25:21.826Z,1.80
2023-01-22T19:28:30.307Z,1.90
2023-01-22T19:31:41.061Z,1.83
2023-01-22T19:34:49.507Z,1.80
2023-01-22T19:37:59.280Z,1.97
2023-01-22T19:41:11.177Z,1.57
2023-01-22T19:44:19.745Z,2.03
2023-01-22T19:47:28.403Z,1.80
2023-01-22T19:50:37.152Z,1.80
2023-01-22T19:53:48.593Z,2.17
2023-01-22T19:56:57.125Z,2.30
2023-01-22T20:00:07.040Z,2.20
2023-01-22T20:03:17.533Z,1.63
2023-01-22T20:06:26.742Z,2.20
2023-01-22T20:09:39.031Z,1.83
2023-01-22T20:12:51.016Z,1.60
2023-01-22T20:16:01.095Z,2.17
2023-01-22T20:19:09.566Z,2.10
2023-01-22T20:22:17.978Z,1.90
2023-01-22T20:25:30.929Z,1.67
2023-01-22T20:28:39.634Z,1.80
2023-01-22T20:31:50.863Z,1.90
2023-01-22T20:34:59.731Z,1.93
2023-01-22T20:38:08.282Z,1.93
2023-01-22T20:41:18.921Z,2.00
2023-01-22T20:44:27.531Z,2.00
2023-01-22T20:47:36.092Z,2.03
2023-01-22T20:50:44.553Z,1.80
2023-01-22T20:53:54.556Z,2.27
2023-01-22T20:57:04.429Z,2.00
2023-01-22T21:00:14.160Z,2.20
2023-01-22T21:03:24.215Z,2.53
2023-01-22T21:06:34.635Z,1.90
2023-01-22T21:09:43.229Z,1.80
2023-01-22T21:12:53.032Z,1.97
2023-01-22T21:16:08.631Z,1.93
2023-01-22T21:19:20.126Z,2.07
2023-01-22T21:22:28.603Z,1.80
2023-01-22T21:25:37.166Z,2.00
2023-01-22T21:28:48.254Z,2.00
2023-01-22T21:31:56.733Z,2.07
2023-01-22T21:35:05.741Z,1.50
2023-01-22T21:38:14.130Z,2.33
2023-01-22T21:41:22.568Z,1.93
2023-01-22T21:44:49.698Z,1.90
2023-01-22T21:47:58.035Z,2.10
2023-01-22T21:51:07.010Z,2.17
2023-01-22T21:54:18.043Z,1.77
2023-01-22T21:57:26.755Z,2.40
2023-01-22T22:00:36.558Z,2.30
2023-01-22T22:03:45.016Z,2.47
2023-01-22T22:06:54.702Z,2.53
2023-01-22T22:10:03.137Z,2.57
2023-01-22T22:13:11.670Z,2.60
2023-01-22T22:16:22.090Z,2.33
2023-01-22T22:19:30.451Z,2.33
2023-01-22T22:22:38.932Z,2.63
2023-01-22T22:25:48.891Z,2.10
2023-01-22T22:28:57.434Z,2.20
2023-01-22T22:32:07.517Z,2.20
2023-01-22T22:35:16.006Z,2.40
2023-01-22T22:38:25.400Z,2.13
2023-01-22T22:41:36.165Z,2.33
2023-01-22T22:44:44.756Z,2.33
2023-01-22T22:47:54.501Z,2.43
2023-01-22T22:51:09.753Z,2.20
2023-01-22T22:54:19.880Z,2.63
2023-01-22T22:57:28.397Z,2.70
2023-01-22T23:00:38.158Z,2.00
2023-01-22T23:03:48.312Z,2.53
2023-01-22T23:06:56.959Z,2.70
2023-01-22T23:10:06.146Z,1.90
2023-01-22T23:13:15.677Z,2.10
2023-01-22T23:16:24.806Z,2.63
2023-01-22T23:19:36.401Z,2.70
2023-01-22T23:22:46.548Z,3.10
2023-01-22T23:25:54.870Z,2.40
2023-01-22T23:29:04.978Z,2.77
2023-01-22T23:32:13.637Z,2.70
2023-01-22T23:35:24.016Z,3.00
2023-01-22T23:38:32.749Z,2.77
2023-01-22T23:41:41.496Z,2.77
2023-01-22T23:44:50.920Z,2.77
2023-01-22T23:48:03.951Z,2.23
2023-01-22T23:51:15.963Z,2.70
2023-01-22T23:54:24.390Z,2.87
2023-01-22T23:57:32.959Z,2.27
